createdAt,value
2023-04-28T00:00:48.809Z,9.03
2023-04-28T00:03:16.022Z,9.07
2023-04-28T00:05:43.083Z,9.33
2023-04-28T00:08:10.706Z,9.10
2023-04-28T00:10:37.630Z,9.90
2023-04-28T00:13:04.602Z,9.33
2023-04-28T00:15:31.502Z,9.03
2023-04-28T00:17:59.823Z,8.83
2023-04-28T00:20:26.876Z,8.63
2023-04-28T00:22:53.784Z,8.90
2023-04-28T00:25:20.841Z,9.83
2023-04-28T00:27:47.733Z,10.50
2023-04-28T00:30:15.019Z,10.43
2023-04-28T00:32:42.321Z,10.10
2023-04-28T00:35:10.833Z,9.67
2023-04-28T00:37:38.635Z,11.27
2023-04-28T00:40:07.542Z,9.90
2023-04-28T00:42:34.553Z,9.87
2023-04-28T00:45:05.874Z,10.53
2023-04-28T00:47:33.498Z,10.70
2023-04-28T00:50:13.504Z,10.07
2023-04-28T00:52:43.690Z,10.50
2023-04-28T00:55:10.734Z,10.47
2023-04-28T00:57:37.751Z,10.67
2023-04-28T01:00:06.490Z,10.73
2023-04-28T01:02:33.835Z,10.53
2023-04-28T01:05:02.166Z,11.03
2023-04-28T01:07:29.787Z,10.20
2023-04-28T01:09:58.035Z,10.23
2023-04-28T01:12:25.212Z,10.20
2023-04-28T01:14:52.589Z,9.87
2023-04-28T01:17:19.713Z,10.73
2023-04-28T01:19:46.604Z,10.57
2023-04-28T01:22:16.697Z,11.00
2023-04-28T01:24:45.095Z,11.00
2023-04-28T01:27:12.004Z,10.20
2023-04-28T01:29:38.907Z,11.20
2023-04-28T01:32:05.891Z,10.97
2023-04-28T01:34:32.810Z,11.17
2023-04-28T01:36:59.734Z,10.93
2023-04-28T01:39:26.754Z,11.10
2023-04-28T01:41:54.989Z,11.77
2023-04-28T01:44:21.916Z,11.47
2023-04-28T01:46:48.898Z,10.10
2023-04-28T01:49:16.077Z,10.57
2023-04-28T01:51:43.230Z,10.90
2023-04-28T01:54:10.670Z,10.20
2023-04-28T01:56:37.783Z,10.30
2023-04-28T01:59:06.109Z,10.50
2023-04-28T02:01:33.196Z,10.47
2023-04-28T02:04:00.229Z,10.03
2023-04-28T02:06:27.880Z,9.50
2023-04-28T02:08:54.915Z,10.23
2023-04-28T02:11:21.861Z,9.13
2023-04-28T02:13:48.835Z,9.03
2023-04-28T02:16:17.059Z,9.17
2023-04-28T02:18:44.093Z,9.40
2023-04-28T02:21:12.477Z,10.13
2023-04-28T02:23:39.917Z,9.33
2023-04-28T02:26:07.330Z,8.87
2023-04-28T02:28:34.339Z,9.60
2023-04-28T02:31:06.304Z,9.43
2023-04-28T02:33:35.048Z,8.60
2023-04-28T02:36:03.815Z,8.07
2023-04-28T02:38:31.161Z,8.07
2023-04-28T02:40:59.512Z,8.67
2023-04-28T02:43:26.818Z,8.20
2023-04-28T02:45:54.676Z,9.33
2023-04-28T02:48:21.749Z,8.33
2023-04-28T02:50:50.634Z,8.40
2023-04-28T02:53:17.567Z,8.50
2023-04-28T02:55:44.672Z,7.53
2023-04-28T02:58:11.864Z,8.23
2023-04-28T03:00:38.841Z,8.50
2023-04-28T03:03:05.886Z,7.57
2023-04-28T03:05:33.010Z,7.50
2023-04-28T03:08:01.591Z,7.63
2023-04-28T03:10:28.587Z,7.80
2023-04-28T03:12:55.634Z,7.70
2023-04-28T03:15:22.583Z,8.20
2023-04-28T03:17:49.535Z,7.70
2023-04-28T03:20:16.509Z,7.90
2023-04-28T03:22:43.411Z,7.73
2023-04-28T03:25:11.662Z,6.97
2023-04-28T03:27:38.584Z,7.03
2023-04-28T03:30:07.277Z,7.73
2023-04-28T03:32:34.327Z,7.70
2023-04-28T03:35:01.363Z,7.67
2023-04-28T03:37:28.459Z,7.60
2023-04-28T03:39:55.384Z,7.00
2023-04-28T03:42:23.613Z,6.43
2023-04-28T03:44:50.691Z,6.80
2023-04-28T03:47:17.618Z,7.47
2023-04-28T03:49:44.525Z,6.47
2023-04-28T03:52:11.680Z,9.10
2023-04-28T03:54:38.738Z,6.37
2023-04-28T03:57:05.677Z,6.43
2023-04-28T03:59:33.953Z,6.07
2023-04-28T04:02:00.904Z,6.10
2023-04-28T04:04:28.260Z,6.60
2023-04-28T04:06:56.008Z,6.53
2023-04-28T04:09:23.199Z,5.90
2023-04-28T04:11:50.304Z,6.17
2023-04-28T04:14:17.574Z,6.87
2023-04-28T04:16:47.852Z,6.67
2023-04-28T04:19:14.776Z,6.10
2023-04-28T04:21:41.778Z,6.23
2023-04-28T04:24:08.882Z,6.40
2023-04-28T04:26:35.850Z,5.90
2023-04-28T04:29:02.777Z,5.60
2023-04-28T04:31:29.828Z,5.60
2023-04-28T04:33:58.119Z,5.83
2023-04-28T04:36:25.225Z,6.13
2023-04-28T04:38:54.301Z,6.00
2023-04-28T04:41:21.909Z,5.70
2023-04-28T04:43:48.904Z,5.93
2023-04-28T04:46:15.986Z,5.90
2023-04-28T04:48:43.211Z,6.30
2023-04-28T04:51:11.634Z,5.20
2023-04-28T04:53:38.732Z,5.80
2023-04-28T04:56:06.928Z,6.03
2023-04-28T04:58:33.883Z,5.50
2023-04-28T05:01:00.825Z,5.77
2023-04-28T05:03:27.894Z,5.60
2023-04-28T05:05:54.981Z,6.00
2023-04-28T05:08:23.333Z,6.50
2023-04-28T05:10:50.329Z,5.83
2023-04-28T05:13:17.263Z,5.37
2023-04-28T05:15:44.231Z,4.30
2023-04-28T05:18:11.468Z,5.80
2023-04-28T05:20:38.592Z,5.57
2023-04-28T05:23:06.680Z,5.37
2023-04-28T05:25:35.100Z,5.10
2023-04-28T05:28:07.594Z,4.60
2023-04-28T05:30:34.853Z,4.70
2023-04-28T05:33:01.892Z,4.87
2023-04-28T05:35:29.003Z,5.10
2023-04-28T05:37:55.969Z,4.83
2023-04-28T05:40:23.048Z,5.87
2023-04-28T05:42:51.318Z,5.00
2023-04-28T05:45:18.551Z,4.77
2023-04-28T05:47:45.759Z,4.30
2023-04-28T05:50:12.865Z,4.60
2023-04-28T05:52:39.765Z,4.27
2023-04-28T05:55:08.154Z,4.23
2023-04-28T05:57:49.231Z,4.50
2023-04-28T06:00:18.857Z,4.53
2023-04-28T06:02:45.973Z,4.23
2023-04-28T06:05:13.362Z,3.80
2023-04-28T06:07:40.612Z,4.20
2023-04-28T06:10:09.897Z,4.30
2023-04-28T06:12:37.379Z,4.53
2023-04-28T06:15:06.522Z,4.33
2023-04-28T06:17:34.881Z,3.70
2023-04-28T06:20:01.903Z,4.30
2023-04-28T06:22:28.808Z,4.20
2023-04-28T06:24:55.834Z,3.60
2023-04-28T06:27:22.712Z,4.77
2023-04-28T06:29:49.640Z,4.07
2023-04-28T06:32:16.934Z,5.53
2023-04-28T06:34:45.321Z,3.90
2023-04-28T06:37:12.262Z,5.43
2023-04-28T06:39:39.203Z,3.90
2023-04-28T06:42:06.270Z,3.73
2023-04-28T06:44:34.816Z,3.67
2023-04-28T06:47:03.340Z,3.70
2023-04-28T06:49:30.466Z,5.07
2023-04-28T06:51:58.939Z,4.00
2023-04-28T06:54:25.975Z,5.07
2023-04-28T06:56:52.848Z,4.20
2023-04-28T06:59:19.762Z,3.63
2023-04-28T07:01:46.668Z,4.10
2023-04-28T07:04:13.933Z,4.43
2023-04-28T07:06:41.267Z,3.80
2023-04-28T07:09:09.692Z,6.93
2023-04-28T07:11:37.040Z,4.10
2023-04-28T07:14:03.980Z,4.40
2023-04-28T07:16:31.014Z,3.83
2023-04-28T07:18:58.075Z,3.50
2023-04-28T07:21:25.047Z,3.57
2023-04-28T07:23:51.999Z,3.30
2023-04-28T07:26:20.542Z,4.10
2023-04-28T07:28:48.081Z,3.37
2023-04-28T07:31:15.154Z,4.70
2023-04-28T07:33:42.089Z,4.30
2023-04-28T07:36:09.480Z,4.57
2023-04-28T07:38:36.646Z,4.20
2023-04-28T07:41:05.713Z,3.83
2023-04-28T07:43:35.770Z,4.03
2023-04-28T07:46:02.687Z,4.90
2023-04-28T07:48:29.834Z,4.30
2023-04-28T07:50:56.796Z,4.40
2023-04-28T07:53:23.994Z,4.73
2023-04-28T07:55:51.282Z,5.00
2023-04-28T07:58:18.475Z,4.90
2023-04-28T08:00:46.791Z,4.87
2023-04-28T08:03:13.958Z,5.20
2023-04-28T08:05:42.921Z,5.20
2023-04-28T08:08:09.983Z,4.40
2023-04-28T08:10:38.017Z,4.63
2023-04-28T08:13:04.942Z,4.60
2023-04-28T08:15:32.086Z,5.47
2023-04-28T08:18:00.527Z,5.03
2023-04-28T08:20:27.521Z,5.37
2023-04-28T08:22:54.537Z,5.23
2023-04-28T08:25:22.302Z,5.60
2023-04-28T08:27:49.521Z,6.00
2023-04-28T08:30:16.531Z,4.97
2023-04-28T08:32:44.242Z,5.40
2023-04-28T08:35:12.845Z,5.03
2023-04-28T08:37:39.821Z,5.23
2023-04-28T08:40:11.795Z,5.27
2023-04-28T08:42:39.774Z,4.33
2023-04-28T08:45:12.795Z,5.00
2023-04-28T08:47:45.663Z,5.30
2023-04-28T08:50:14.921Z,5.37
2023-04-28T08:52:45.207Z,5.55
2023-04-28T08:55:13.256Z,5.80
2023-04-28T08:57:44.975Z,5.50
2023-04-28T09:00:13.179Z,5.40
2023-04-28T09:02:42.646Z,5.47
2023-04-28T09:05:12.220Z,5.27
2023-04-28T09:07:43.586Z,5.23
2023-04-28T09:10:21.072Z,5.50
2023-04-28T09:12:51.677Z,5.93
2023-04-28T09:15:33.212Z,6.10
2023-04-28T09:18:02.538Z,6.10
2023-04-28T09:20:32.929Z,6.40
2023-04-28T09:23:16.388Z,6.63
2023-04-28T09:25:59.092Z,5.93
2023-04-28T09:28:26.271Z,5.90
2023-04-28T09:30:53.392Z,4.97
2023-04-28T09:33:21.832Z,5.93
2023-04-28T09:35:49.775Z,5.90
2023-04-28T09:38:20.557Z,5.70
2023-04-28T09:40:53.173Z,5.80
2023-04-28T09:43:28.702Z,5.83
2023-04-28T09:45:57.431Z,5.73
2023-04-28T09:48:31.065Z,6.20
2023-04-28T09:50:59.324Z,5.80
2023-04-28T09:53:28.824Z,6.10
2023-04-28T09:55:58.687Z,6.80
2023-04-28T09:58:27.570Z,6.33
2023-04-28T10:00:57.839Z,6.20
2023-04-28T10:03:29.335Z,5.27
2023-04-28T10:05:58.717Z,6.33
2023-04-28T10:08:27.890Z,6.77
2023-04-28T10:10:56.689Z,7.60
2023-04-28T10:13:25.055Z,7.15
2023-04-28T10:15:55.587Z,6.80
2023-04-28T10:18:24.379Z,6.60
2023-04-28T10:20:58.386Z,6.50
2023-04-28T10:23:51.198Z,6.47
2023-04-28T10:26:20.003Z,7.10
2023-04-28T10:28:49.178Z,6.87
2023-04-28T10:31:18.652Z,6.37
2023-04-28T10:33:48.348Z,7.33
2023-04-28T10:36:50.925Z,6.33
2023-04-28T10:39:19.465Z,6.70
2023-04-28T10:41:50.539Z,7.63
2023-04-28T10:44:42.839Z,6.87
2023-04-28T10:47:10.852Z,7.37
2023-04-28T10:50:10.414Z,7.50
2023-04-28T10:52:50.519Z,7.88
2023-04-28T10:55:32.646Z,6.70
2023-04-28T10:58:32.607Z,6.30
2023-04-28T11:01:25.487Z,8.40
2023-04-28T11:04:00.470Z,7.50
2023-04-28T11:06:30.084Z,11.50
2023-04-28T11:09:03.568Z,7.57
2023-04-28T11:11:36.351Z,7.13
2023-04-28T11:14:35.860Z,7.22
2023-04-28T11:17:05.407Z,7.17
2023-04-28T11:19:34.787Z,8.67
2023-04-28T11:22:04.647Z,7.30
2023-04-28T11:24:32.155Z,7.67
2023-04-28T11:27:02.192Z,7.40
2023-04-28T11:29:34.015Z,7.03
2023-04-28T11:32:01.527Z,7.10
2023-04-28T11:34:28.684Z,7.23
2023-04-28T11:36:56.334Z,7.38
2023-04-28T11:39:28.718Z,8.00
2023-04-28T11:41:57.026Z,7.57
2023-04-28T11:44:29.278Z,7.50
2023-04-28T11:47:00.676Z,7.40
2023-04-28T11:49:31.294Z,8.50
2023-04-28T11:52:05.657Z,8.37
2023-04-28T11:54:33.524Z,8.50
2023-04-28T11:57:03.946Z,7.80
2023-04-28T11:59:34.304Z,8.57
2023-04-28T12:02:03.965Z,9.07
2023-04-28T12:04:35.761Z,8.07
2023-04-28T12:07:07.768Z,8.63
2023-04-28T12:09:44.775Z,8.30
2023-04-28T12:12:15.475Z,8.23
2023-04-28T12:15:07.979Z,8.87
2023-04-28T12:17:38.932Z,8.97
2023-04-28T12:20:09.980Z,8.53
2023-04-28T12:22:48.763Z,7.47
2023-04-28T12:25:19.171Z,8.40
2023-04-28T12:28:02.524Z,8.07
2023-04-28T12:30:33.632Z,8.17
2023-04-28T12:33:01.401Z,8.30
2023-04-28T12:35:29.689Z,8.53
2023-04-28T12:37:58.694Z,8.60
2023-04-28T12:40:26.261Z,8.13
2023-04-28T12:42:53.666Z,8.00
2023-04-28T12:45:20.719Z,6.97
2023-04-28T12:47:49.145Z,7.80
2023-04-28T12:50:16.200Z,7.83
2023-04-28T12:52:43.405Z,7.87
2023-04-28T12:55:11.005Z,7.43
2023-04-28T12:57:39.695Z,7.33
2023-04-28T13:00:08.739Z,7.53
2023-04-28T13:02:36.356Z,8.27
2023-04-28T13:05:06.083Z,7.43
2023-04-28T13:07:34.386Z,7.80
2023-04-28T13:10:01.468Z,7.23
2023-04-28T13:12:28.398Z,7.30
2023-04-28T13:14:55.282Z,7.70
2023-04-28T13:17:22.973Z,7.83
2023-04-28T13:19:49.935Z,7.33
2023-04-28T13:22:18.331Z,7.70
2023-04-28T13:24:46.030Z,6.40
2023-04-28T13:27:13.223Z,6.57
2023-04-28T13:29:40.155Z,7.93
2023-04-28T13:32:07.341Z,7.37
2023-04-28T13:34:34.579Z,6.93
2023-04-28T13:37:01.515Z,6.83
2023-04-28T13:39:29.844Z,6.13
2023-04-28T13:41:56.773Z,5.93
2023-04-28T13:44:24.074Z,6.60
2023-04-28T13:46:52.409Z,6.40
2023-04-28T13:49:20.023Z,7.37
2023-04-28T13:51:47.332Z,6.43
2023-04-28T13:54:14.661Z,6.30
2023-04-28T13:56:43.662Z,7.13
2023-04-28T13:59:10.702Z,6.67
2023-04-28T14:01:37.766Z,7.60
2023-04-28T14:04:04.918Z,6.70
2023-04-28T14:06:33.643Z,6.43
2023-04-28T14:09:02.797Z,7.70
2023-04-28T14:11:29.939Z,6.67
2023-04-28T14:13:58.782Z,7.33
2023-04-28T14:16:37.451Z,6.87
2023-04-28T14:19:09.295Z,6.87
2023-04-28T14:21:38.054Z,6.80
2023-04-28T14:24:05.949Z,5.80
2023-04-28T14:26:33.181Z,6.90
2023-04-28T14:29:01.538Z,6.47
2023-04-28T14:31:28.924Z,7.13
2023-04-28T14:33:55.923Z,6.53
2023-04-28T14:36:22.921Z,6.40
2023-04-28T14:38:49.965Z,6.37
2023-04-28T14:41:16.953Z,7.03
2023-04-28T14:43:44.806Z,7.27
2023-04-28T14:46:13.376Z,6.67
2023-04-28T14:48:40.667Z,6.87
2023-04-28T14:51:08.161Z,7.80
2023-04-28T14:53:35.297Z,7.17
2023-04-28T14:56:17.323Z,6.27
2023-04-28T14:58:45.936Z,7.97
2023-04-28T15:01:14.598Z,7.30
2023-04-28T15:03:41.854Z,7.90
2023-04-28T15:06:09.426Z,7.67
2023-04-28T15:08:37.158Z,7.27
2023-04-28T15:11:04.316Z,6.27
2023-04-28T15:13:32.149Z,6.40
2023-04-28T15:16:00.299Z,6.63
2023-04-28T15:18:28.768Z,6.70
2023-04-28T15:20:56.107Z,6.43
2023-04-28T15:23:23.080Z,6.77
2023-04-28T15:25:53.365Z,6.53
2023-04-28T15:28:20.410Z,6.87
2023-04-28T15:30:47.382Z,6.27
2023-04-28T15:33:17.433Z,6.43
2023-04-28T15:35:46.736Z,5.70
2023-04-28T15:38:14.179Z,6.07
2023-04-28T15:40:42.631Z,5.87
2023-04-28T15:43:10.084Z,6.40
2023-04-28T15:45:38.902Z,5.90
2023-04-28T15:48:06.719Z,6.73
2023-04-28T15:50:35.892Z,6.97
2023-04-28T15:53:04.223Z,7.13
2023-04-28T15:55:31.388Z,7.17
2023-04-28T15:57:58.524Z,7.97
2023-04-28T16:00:25.498Z,7.93
2023-04-28T16:02:52.943Z,8.13
2023-04-28T16:05:20.398Z,7.93
2023-04-28T16:07:48.420Z,8.50
2023-04-28T16:10:17.200Z,8.20
2023-04-28T16:12:44.371Z,8.40
2023-04-28T16:15:13.921Z,8.20
2023-04-28T16:17:42.053Z,8.60
2023-04-28T16:20:11.558Z,8.53
2023-04-28T16:22:40.655Z,8.57
2023-04-28T16:25:09.170Z,9.60
2023-04-28T16:27:38.950Z,9.47
2023-04-28T16:30:08.781Z,7.60
2023-04-28T16:32:40.605Z,9.90
2023-04-28T16:35:15.123Z,9.53
2023-04-28T16:37:43.479Z,9.20
2023-04-28T16:40:12.342Z,9.70
2023-04-28T16:42:41.892Z,9.73
2023-04-28T16:45:10.800Z,9.50
2023-04-28T16:47:38.588Z,10.30
2023-04-28T16:50:09.173Z,10.97
2023-04-28T16:52:36.087Z,10.13
2023-04-28T16:55:04.159Z,10.23
2023-04-28T16:57:31.278Z,10.83
2023-04-28T16:59:59.736Z,10.50
2023-04-28T17:02:28.620Z,9.97
2023-04-28T17:04:55.800Z,10.40
2023-04-28T17:07:24.991Z,10.73
2023-04-28T17:09:53.099Z,11.03
2023-04-28T17:12:20.908Z,9.77
2023-04-28T17:14:50.541Z,10.97
2023-04-28T17:17:22.419Z,11.63
2023-04-28T17:19:49.653Z,10.80
2023-04-28T17:22:17.028Z,11.37
2023-04-28T17:24:45.308Z,10.63
2023-04-28T17:27:12.231Z,10.40
2023-04-28T17:29:39.182Z,9.97
2023-04-28T17:32:06.183Z,9.77
2023-04-28T17:34:34.445Z,10.00
2023-04-28T17:37:01.378Z,11.03
2023-04-28T17:39:28.253Z,10.83
2023-04-28T17:41:57.528Z,10.03
2023-04-28T17:44:24.652Z,10.70
2023-04-28T17:46:52.616Z,9.80
2023-04-28T17:49:19.588Z,10.47
2023-04-28T17:51:47.859Z,9.50
2023-04-28T17:54:14.813Z,10.00
2023-04-28T17:56:41.687Z,9.33
2023-04-28T17:59:08.931Z,15.40
2023-04-28T18:01:36.152Z,17.07
2023-04-28T18:04:03.249Z,14.27
2023-04-28T18:06:30.227Z,11.97
2023-04-28T18:08:58.428Z,9.83
2023-04-28T18:11:27.797Z,9.03
2023-04-28T18:13:54.773Z,9.50
2023-04-28T18:16:21.769Z,10.77
2023-04-28T18:18:49.290Z,10.63
2023-04-28T18:21:16.604Z,10.93
2023-04-28T18:23:43.585Z,11.37
2023-04-28T18:26:15.346Z,12.23
2023-04-28T18:28:46.073Z,10.80
2023-04-28T18:31:12.989Z,11.53
2023-04-28T18:33:39.920Z,12.17
2023-04-28T18:36:07.587Z,11.50
2023-04-28T18:38:36.288Z,11.40
2023-04-28T18:41:14.126Z,12.00
2023-04-28T18:43:42.285Z,12.37
2023-04-28T18:46:10.324Z,12.80
2023-04-28T18:48:37.785Z,14.13
2023-04-28T18:51:05.429Z,13.93
2023-04-28T18:53:33.416Z,13.00
2023-04-28T18:56:00.405Z,12.60
2023-04-28T18:58:29.143Z,14.23
2023-04-28T19:00:56.487Z,13.60
2023-04-28T19:03:24.362Z,13.87
2023-04-28T19:05:51.446Z,13.80
2023-04-28T19:08:18.535Z,14.90
2023-04-28T19:10:45.441Z,15.13
2023-04-28T19:13:12.692Z,13.23
2023-04-28T19:15:40.900Z,16.03
2023-04-28T19:18:08.063Z,15.70
2023-04-28T19:20:35.731Z,15.27
2023-04-28T19:23:03.627Z,14.37
2023-04-28T19:25:33.364Z,13.80
2023-04-28T19:28:00.340Z,15.23
2023-04-28T19:30:27.460Z,14.33
2023-04-28T19:32:55.835Z,16.57
2023-04-28T19:35:23.315Z,13.57
2023-04-28T19:37:50.600Z,14.20
2023-04-28T19:40:17.774Z,16.03
2023-04-28T19:42:44.705Z,16.23
2023-04-28T19:45:11.961Z,16.50
2023-04-28T19:47:39.394Z,17.73
2023-04-28T19:50:10.199Z,17.87
2023-04-28T19:52:37.413Z,14.70
2023-04-28T19:55:04.982Z,31.97
2023-04-28T19:57:31.880Z,17.20
2023-04-28T19:59:58.874Z,16.20
2023-04-28T20:02:26.142Z,17.37
2023-04-28T20:04:53.228Z,17.73
2023-04-28T20:07:21.622Z,18.83
2023-04-28T20:09:48.783Z,17.87
2023-04-28T20:12:15.761Z,17.30
2023-04-28T20:14:42.634Z,17.30
2023-04-28T20:17:09.662Z,18.03
2023-04-28T20:19:36.844Z,19.00
2023-04-28T20:22:06.794Z,19.33
2023-04-28T20:24:36.909Z,18.60
2023-04-28T20:27:04.173Z,20.20
2023-04-28T20:29:34.750Z,20.07
2023-04-28T20:32:02.573Z,23.20
2023-04-28T20:34:30.167Z,18.67
2023-04-28T20:36:59.348Z,19.83
2023-04-28T20:39:26.576Z,18.87
2023-04-28T20:41:54.893Z,20.10
2023-04-28T20:44:22.113Z,18.93
2023-04-28T20:46:49.050Z,18.63
2023-04-28T20:49:16.449Z,17.73
2023-04-28T20:51:46.689Z,19.27
2023-04-28T20:54:14.414Z,16.90
2023-04-28T20:56:42.762Z,17.77
2023-04-28T20:59:11.175Z,16.93
2023-04-28T21:01:38.047Z,15.77
2023-04-28T21:04:05.321Z,15.47
2023-04-28T21:06:32.690Z,14.53
2023-04-28T21:08:59.603Z,14.73
2023-04-28T21:11:27.021Z,14.53
2023-04-28T21:13:54.071Z,15.60
2023-04-28T21:16:22.425Z,14.53
2023-04-28T21:18:50.333Z,13.73
2023-04-28T21:21:17.338Z,14.63
2023-04-28T21:23:45.497Z,14.40
2023-04-28T21:26:12.626Z,13.37
2023-04-28T21:28:40.124Z,15.30
2023-04-28T21:31:07.519Z,16.10
2023-04-28T21:33:35.802Z,14.17
2023-04-28T21:36:07.207Z,13.70
2023-04-28T21:38:34.554Z,14.37
2023-04-28T21:41:02.661Z,14.43
2023-04-28T21:43:29.629Z,14.70
2023-04-28T21:45:56.603Z,13.50
2023-04-28T21:48:23.576Z,14.47
2023-04-28T21:50:51.852Z,14.30
2023-04-28T21:53:18.741Z,14.43
2023-04-28T21:55:45.739Z,14.77
2023-04-28T21:58:12.720Z,14.90
2023-04-28T22:00:44.217Z,16.23
2023-04-28T22:03:13.236Z,13.80
2023-04-28T22:05:41.146Z,15.80
2023-04-28T22:08:09.515Z,13.53
2023-04-28T22:10:36.844Z,14.00
2023-04-28T22:13:05.100Z,16.27
2023-04-28T22:15:32.811Z,14.90
2023-04-28T22:17:59.802Z,15.27
2023-04-28T22:20:27.148Z,15.50
2023-04-28T22:22:54.418Z,14.97
2023-04-28T22:25:22.843Z,14.27
2023-04-28T22:27:49.757Z,13.87
2023-04-28T22:30:16.983Z,14.87
2023-04-28T22:32:44.660Z,13.57
2023-04-28T22:35:12.621Z,14.90
2023-04-28T22:37:40.027Z,14.03
2023-04-28T22:40:09.022Z,14.27
2023-04-28T22:42:38.119Z,13.73
2023-04-28T22:45:06.676Z,14.93
2023-04-28T22:47:34.166Z,14.60
2023-04-28T22:50:03.806Z,15.37
2023-04-28T22:52:30.718Z,13.43
2023-04-28T22:54:57.618Z,14.23
2023-04-28T22:57:24.640Z,15.10
2023-04-28T22:59:53.412Z,15.27
2023-04-28T23:02:20.890Z,16.77
2023-04-28T23:04:48.176Z,16.00
2023-04-28T23:07:15.226Z,15.23
2023-04-28T23:09:42.180Z,16.07
2023-04-28T23:12:09.071Z,19.37
2023-04-28T23:14:36.055Z,17.43
2023-04-28T23:17:04.265Z,20.90
2023-04-28T23:19:31.613Z,17.47
2023-04-28T23:21:58.479Z,17.67
2023-04-28T23:24:27.497Z,18.47
2023-04-28T23:26:54.514Z,20.53
2023-04-28T23:29:21.382Z,21.50
2023-04-28T23:31:52.397Z,22.97
2023-04-28T23:34:21.301Z,23.47
2023-04-28T23:36:48.291Z,22.37
2023-04-28T23:39:15.503Z,23.37
2023-04-28T23:41:42.635Z,21.83
2023-04-28T23:44:09.730Z,23.87
2023-04-28T23:46:36.695Z,24.60
2023-04-28T23:49:03.798Z,24.90
2023-04-28T23:51:32.312Z,25.27
2023-04-28T23:53:59.353Z,25.07
2023-04-28T23:56:26.636Z,27.00
2023-04-28T23:58:53.588Z,28.13
